Norrland — C4KF2 — position and weather

sailwx.info

Track history (hours):
 
Tides and Currents Weather Stations Pressure Air Temp Water Temp Dewpoint Dewpoint Depression Visibility Wind Speed Wind Dir Waves Ship Positions

Norrland

Last reported at 2017-Jan-16 12:10 UTC. Time now 2017-Jan-17 21:25 UTC.
Position N 60°03' E 019°20'.

Length 118 m; draft 6.6 m.

Type: Cargo ship. MMSI: 212521000.

Date/timePositionNaut miles runAvg speedWind from/ knotsBaromVisibWave heightAir tempDewpointWater temp
2017-Jan-16 12:10N 60°03' E 019°20'711.7
2017-Jan-16 11:34N 59°58' E 019°29'1110.6
2017-Jan-16 10:33N 59°50' E 019°43'  
2017-Jan-13 05:11N 55°38' E 015°26'711.6
2017-Jan-13 04:33N 55°35' E 015°14'1211.8
2017-Jan-13 03:33N 55°29' E 014°56'1212.0
2017-Jan-13 02:33N 55°22' E 014°38'1211.6
2017-Jan-13 01:33N 55°14' E 014°25'1111.1
2017-Jan-13 00:33N 55°10' E 014°06'1211.9
2017-Jan-12 23:31N 55°11' E 013°44'2811.7
2017-Jan-12 21:08N 55°14' E 012°56'711.9
2017-Jan-12 20:34N 55°16' E 012°45'1010.4
2017-Jan-12 19:34N 55°25' E 012°34'1110.8
2017-Jan-12 18:34N 55°35' E 012°29'1 0.7
2017-Jan-12 17:31N 55°36' E 012°29'0 0.0
2017-Jan-12 16:31N 55°36' E 012°29'0 0.0
2017-Jan-12 15:31N 55°36' E 012°29'0 0.0
2017-Jan-12 14:31N 55°36' E 012°29'0 0.0
2017-Jan-12 13:31N 55°36' E 012°29'0 0.0
2017-Jan-12 12:31N 55°36' E 012°29'0 0.0
2017-Jan-12 11:31N 55°36' E 012°29'0 0.0
2017-Jan-12 10:31N 55°36' E 012°29'0 0.0
2017-Jan-12 09:31N 55°36' E 012°29'0 0.0
2017-Jan-12 08:31N 55°36' E 012°29'0 0.0
2017-Jan-12 07:31N 55°36' E 012°29'0 0.0
2017-Jan-12 06:31N 55°36' E 012°29'0 0.0
2017-Jan-12 05:31N 55°36' E 012°29'0 0.0
2017-Jan-12 04:31N 55°36' E 012°29'0 0.0
2017-Jan-12 03:31N 55°36' E 012°29'0 0.0
2017-Jan-12 02:31N 55°36' E 012°29'0 0.0
2017-Jan-12 01:31N 55°36' E 012°29'0 0.0
2017-Jan-12 00:31N 55°36' E 012°29'0 0.0
2017-Jan-11 23:31N 55°36' E 012°29'0 0.0
2017-Jan-11 22:31N 55°36' E 012°29'0 0.0
2017-Jan-11 21:31N 55°36' E 012°29'0 0.0
2017-Jan-11 20:31N 55°36' E 012°29'0 0.0
2017-Jan-11 19:31N 55°36' E 012°29'0 0.0
2017-Jan-11 18:31N 55°36' E 012°29'0 0.0
2017-Jan-11 17:31N 55°36' E 012°29'0 0.0
2017-Jan-11 16:31N 55°36' E 012°29'0 0.0
2017-Jan-11 15:31N 55°36' E 012°29'0 0.0
2017-Jan-11 14:31N 55°36' E 012°29'0 0.0
2017-Jan-11 13:31N 55°36' E 012°29'0 0.0
2017-Jan-11 12:31N 55°36' E 012°29'0 0.0
2017-Jan-11 11:31N 55°36' E 012°29'0 0.0
2017-Jan-11 10:31N 55°36' E 012°29'0 0.0
2017-Jan-11 09:31N 55°36' E 012°29'0 0.0
2017-Jan-11 08:31N 55°36' E 012°29'0 0.0
2017-Jan-11 07:31N 55°36' E 012°29'0 0.0
2017-Jan-11 06:31N 55°36' E 012°29'0 0.0
2017-Jan-11 05:31N 55°36' E 012°29'0 0.0
2017-Jan-11 04:31N 55°36' E 012°29'0 0.0
2017-Jan-11 03:31N 55°36' E 012°29'0 0.0
2017-Jan-11 02:31N 55°36' E 012°29'0 0.0
2017-Jan-11 01:31N 55°36' E 012°29'0 0.0
2017-Jan-11 00:31N 55°36' E 012°29'0 0.0
2017-Jan-10 23:31N 55°36' E 012°29'0 0.0
2017-Jan-10 22:31N 55°36' E 012°29'0 0.0
2017-Jan-10 21:31N 55°36' E 012°29'0 0.0
2017-Jan-10 20:31N 55°36' E 012°29'0 0.0
2017-Jan-10 19:31N 55°36' E 012°29'0 0.0
2017-Jan-10 18:31N 55°36' E 012°29'0 0.0
2017-Jan-10 17:31N 55°36' E 012°29'0 0.0
2017-Jan-10 16:31N 55°36' E 012°29'0 0.0
2017-Jan-10 15:31N 55°36' E 012°29'0 0.0
2017-Jan-10 14:31N 55°36' E 012°29'0 0.0
2017-Jan-10 13:31N 55°36' E 012°29'0 0.0
2017-Jan-10 12:31N 55°36' E 012°29'0 0.0
2017-Jan-10 11:31N 55°36' E 012°29'0 0.0
2017-Jan-10 10:31N 55°36' E 012°29'0 0.0
2017-Jan-10 09:31N 55°36' E 012°29'4 4.5
2017-Jan-10 08:34N 55°32' E 012°30'5 5.0
2017-Jan-10 07:32N 55°31' E 012°39'0 0.0
2017-Jan-10 06:32N 55°31' E 012°39'0 0.0
2017-Jan-10 05:32N 55°31' E 012°39'0 0.0
2017-Jan-10 04:32N 55°31' E 012°39'0 0.0
2017-Jan-10 03:32N 55°31' E 012°39'0 0.2
2017-Jan-10 02:33N 55°31' E 012°39'8 7.9
2017-Jan-10 01:33N 55°23' E 012°41'8 8.3
2017-Jan-10 00:33N 55°16' E 012°51'10 9.8
2017-Jan-09 23:33N 55°16' E 013°08'1010.0
2017-Jan-09 22:31N 55°15' E 013°26'1010.0
2017-Jan-09 21:32N 55°15' E 013°43'1010.2
2017-Jan-09 20:33N 55°14' E 014°01'1010.1
2017-Jan-09 19:33N 55°15' E 014°18'1110.7
2017-Jan-09 18:33N 55°23' E 014°31'1110.9
2017-Jan-09 17:33N 55°29' E 014°47'1111.4
2017-Jan-09 16:33N 55°35' E 015°05'  
Track history (hours):
 
Tides and Currents Weather Stations Pressure Air Temp Water Temp Dewpoint Dewpoint Depression Visibility Wind Speed Wind Dir Waves Ship Positions

Norrland

Last reported at 2017-Jan-16 12:10 UTC. Time now 2017-Jan-17 21:25 UTC.
Position N 60°03' E 019°20'.

Length 118 m; draft 6.6 m.

Type: Cargo ship. MMSI: 212521000.

Date/timePositionNaut miles runAvg speedWind from/ knotsBaromVisibWave heightAir tempDewpointWater temp
2017-Jan-16 12:10N 60°03' E 019°20'711.7
2017-Jan-16 11:34N 59°58' E 019°29'1110.6
2017-Jan-16 10:33N 59°50' E 019°43'  
2017-Jan-13 05:11N 55°38' E 015°26'711.6
2017-Jan-13 04:33N 55°35' E 015°14'1211.8
2017-Jan-13 03:33N 55°29' E 014°56'1212.0
2017-Jan-13 02:33N 55°22' E 014°38'1211.6
2017-Jan-13 01:33N 55°14' E 014°25'1111.1
2017-Jan-13 00:33N 55°10' E 014°06'1211.9
2017-Jan-12 23:31N 55°11' E 013°44'2811.7
2017-Jan-12 21:08N 55°14' E 012°56'711.9
2017-Jan-12 20:34N 55°16' E 012°45'1010.4
2017-Jan-12 19:34N 55°25' E 012°34'1110.8
2017-Jan-12 18:34N 55°35' E 012°29'1 0.7
2017-Jan-12 17:31N 55°36' E 012°29'0 0.0
2017-Jan-12 16:31N 55°36' E 012°29'0 0.0
2017-Jan-12 15:31N 55°36' E 012°29'0 0.0
2017-Jan-12 14:31N 55°36' E 012°29'0 0.0
2017-Jan-12 13:31N 55°36' E 012°29'0 0.0
2017-Jan-12 12:31N 55°36' E 012°29'0 0.0
2017-Jan-12 11:31N 55°36' E 012°29'0 0.0
2017-Jan-12 10:31N 55°36' E 012°29'0 0.0
2017-Jan-12 09:31N 55°36' E 012°29'0 0.0
2017-Jan-12 08:31N 55°36' E 012°29'0 0.0
2017-Jan-12 07:31N 55°36' E 012°29'0 0.0
2017-Jan-12 06:31N 55°36' E 012°29'0 0.0
2017-Jan-12 05:31N 55°36' E 012°29'0 0.0
2017-Jan-12 04:31N 55°36' E 012°29'0 0.0
2017-Jan-12 03:31N 55°36' E 012°29'0 0.0
2017-Jan-12 02:31N 55°36' E 012°29'0 0.0
2017-Jan-12 01:31N 55°36' E 012°29'0 0.0
2017-Jan-12 00:31N 55°36' E 012°29'0 0.0
2017-Jan-11 23:31N 55°36' E 012°29'0 0.0
2017-Jan-11 22:31N 55°36' E 012°29'0 0.0
2017-Jan-11 21:31N 55°36' E 012°29'0 0.0
2017-Jan-11 20:31N 55°36' E 012°29'0 0.0
2017-Jan-11 19:31N 55°36' E 012°29'0 0.0
2017-Jan-11 18:31N 55°36' E 012°29'0 0.0
2017-Jan-11 17:31N 55°36' E 012°29'0 0.0
2017-Jan-11 16:31N 55°36' E 012°29'0 0.0
2017-Jan-11 15:31N 55°36' E 012°29'0 0.0
2017-Jan-11 14:31N 55°36' E 012°29'0 0.0
2017-Jan-11 13:31N 55°36' E 012°29'0 0.0
2017-Jan-11 12:31N 55°36' E 012°29'0 0.0
2017-Jan-11 11:31N 55°36' E 012°29'0 0.0
2017-Jan-11 10:31N 55°36' E 012°29'0 0.0
2017-Jan-11 09:31N 55°36' E 012°29'0 0.0
2017-Jan-11 08:31N 55°36' E 012°29'0 0.0
2017-Jan-11 07:31N 55°36' E 012°29'0 0.0
2017-Jan-11 06:31N 55°36' E 012°29'0 0.0
2017-Jan-11 05:31N 55°36' E 012°29'0 0.0
2017-Jan-11 04:31N 55°36' E 012°29'0 0.0
2017-Jan-11 03:31N 55°36' E 012°29'0 0.0
2017-Jan-11 02:31N 55°36' E 012°29'0 0.0
2017-Jan-11 01:31N 55°36' E 012°29'0 0.0
2017-Jan-11 00:31N 55°36' E 012°29'0 0.0
2017-Jan-10 23:31N 55°36' E 012°29'0 0.0
2017-Jan-10 22:31N 55°36' E 012°29'0 0.0
2017-Jan-10 21:31N 55°36' E 012°29'0 0.0
2017-Jan-10 20:31N 55°36' E 012°29'0 0.0
2017-Jan-10 19:31N 55°36' E 012°29'0 0.0
2017-Jan-10 18:31N 55°36' E 012°29'0 0.0
2017-Jan-10 17:31N 55°36' E 012°29'0 0.0
2017-Jan-10 16:31N 55°36' E 012°29'0 0.0
2017-Jan-10 15:31N 55°36' E 012°29'0 0.0
2017-Jan-10 14:31N 55°36' E 012°29'0 0.0
2017-Jan-10 13:31N 55°36' E 012°29'0 0.0
2017-Jan-10 12:31N 55°36' E 012°29'0 0.0
2017-Jan-10 11:31N 55°36' E 012°29'0 0.0
2017-Jan-10 10:31N 55°36' E 012°29'0 0.0
2017-Jan-10 09:31N 55°36' E 012°29'4 4.5
2017-Jan-10 08:34N 55°32' E 012°30'5 5.0
2017-Jan-10 07:32N 55°31' E 012°39'0 0.0
2017-Jan-10 06:32N 55°31' E 012°39'0 0.0
2017-Jan-10 05:32N 55°31' E 012°39'0 0.0
2017-Jan-10 04:32N 55°31' E 012°39'0 0.0
2017-Jan-10 03:32N 55°31' E 012°39'0 0.2
2017-Jan-10 02:33N 55°31' E 012°39'8 7.9
2017-Jan-10 01:33N 55°23' E 012°41'8 8.3
2017-Jan-10 00:33N 55°16' E 012°51'10 9.8
2017-Jan-09 23:33N 55°16' E 013°08'1010.0
2017-Jan-09 22:31N 55°15' E 013°26'1010.0
2017-Jan-09 21:32N 55°15' E 013°43'1010.2
2017-Jan-09 20:33N 55°14' E 014°01'1010.1
2017-Jan-09 19:33N 55°15' E 014°18'1110.7
2017-Jan-09 18:33N 55°23' E 014°31'1110.9
2017-Jan-09 17:33N 55°29' E 014°47'1111.4
2017-Jan-09 16:33N 55°35' E 015°05'  

Dump ship's entire track history